Time;durP1;ratioP1;P1;durP2;ratioP2;P2;SDS_P1;SDS_P2;PMS_P1;PMS_P2;Temp;Humidity;BMP_temperature;BMP_pressure;BME280_temperature;BME280_humidity;BME280_pressure;Samples;Min_cycle;Max_cycle;Signal;HPM_P1;HPM_P2
2022/05/10 00:00:29;;;;;;;;;;;;;;;8.59;74.35;101528.38;6206514;23;19994;-78
2022/05/10 00:02:55;;;;;;;;;;;;;;;8.65;74.03;101530.56;6177395;23;19916;-79
2022/05/10 00:05:23;;;;;;;;;;;;;;;8.62;73.96;101531.69;6176915;22;19915;-79
2022/05/10 00:07:49;;;;;;;;;;;;;;;8.51;74.56;101528.19;6177082;22;20248;-77
2022/05/10 00:10:16;;;;;;;;;;;;;;;8.55;74.18;101527.81;6204099;23;20376;-79
2022/05/10 00:12:41;;;;;;;;;;;;;;;8.46;74.75;101531.25;6151489;23;19943;-78
2022/05/10 00:15:11;;;;;;;;;;;;;;;8.45;74.89;101524.16;6202499;23;19923;-79
2022/05/10 00:17:38;;;;;;;;;;;;;;;8.37;75.32;101519.41;6202420;23;20332;-77
2022/05/10 00:20:05;;;;;;;;;;;;;;;8.42;74.90;101524.44;6150978;23;20269;-78
2022/05/10 00:22:32;;;;;;;;;;;;;;;8.41;75.03;101522.75;6176123;23;19920;-78
2022/05/10 00:24:59;;;;;;;;;;;;;;;8.50;74.49;101516.63;6181355;23;19918;-79
2022/05/10 00:27:24;;;;;;;;;;;;;;;8.45;74.65;101514.31;6179968;23;20349;-78
2022/05/10 00:29:49;;;;;;;;;;;;;;;8.37;75.10;101516.72;6178042;23;19946;-80
2022/05/10 00:32:16;;;;;;;;;;;;;;;8.33;75.28;101517.09;6153122;23;19946;-79
2022/05/10 00:34:43;;;;;;;;;;;;;;;8.38;75.11;101509.53;6153518;23;19915;-80
2022/05/10 00:37:09;;;;;;;;;;;;;;;8.24;75.60;101500.81;6155594;23;19936;-79
2022/05/10 00:39:35;;;;;;;;;;;;;;;8.35;75.54;101504.44;6177506;23;19919;-78
2022/05/10 00:42:05;;;;;;;;;;;;;;;8.28;75.62;101500.56;6177710;23;20340;-78
2022/05/10 00:44:35;;;;;;;;;;;;;;;8.35;75.45;101499.09;6176627;23;20044;-79
2022/05/10 00:47:01;;;;;;;;;;;;;;;8.26;75.49;101487.28;6177804;22;19923;-78
2022/05/10 00:49:52;;;;;;;;;;;;;;;8.12;76.38;101495.59;6202189;23;20309;-81
2022/05/10 00:52:32;;;;;;;;;;;;;;;8.06;76.52;101494.28;6202322;23;20340;-79
2022/05/10 00:55:18;;;;;;;;;;;;;;;7.99;77.14;101499.28;6176030;23;19920;-79
2022/05/10 00:58:03;;;;;;;;;;;;;;;8.18;76.33;101482.56;6176515;23;19954;-79
2022/05/10 01:00:29;;;;;;;;;;;;;;;8.12;76.28;101480.38;6199549;23;19916;-77
2022/05/10 01:03:17;;;;;;;;;;;;;;;7.98;77.03;101494.91;6174856;23;19912;-76
2022/05/10 01:06:02;;;;;;;;;;;;;;;7.97;77.11;101492.34;6202549;23;19916;-80
2022/05/10 01:08:47;;;;;;;;;;;;;;;7.87;77.48;101486.88;6175003;22;19926;-80
2022/05/10 01:11:14;;;;;;;;;;;;;;;8.01;76.77;101485.78;6202481;23;20423;-76
2022/05/10 01:13:55;;;;;;;;;;;;;;;7.94;76.90;101488.09;6201705;23;19920;-79
2022/05/10 01:16:23;;;;;;;;;;;;;;;8.02;76.63;101484.78;6150000;23;19924;-77
2022/05/10 01:18:50;;;;;;;;;;;;;;;7.90;76.91;101491.13;6201814;22;20336;-77
2022/05/10 01:21:17;;;;;;;;;;;;;;;7.81;77.02;101482.84;6176469;23;20241;-78
2022/05/10 01:23:48;;;;;;;;;;;;;;;7.77;77.13;101486.78;6202940;23;19912;-77
2022/05/10 01:26:13;;;;;;;;;;;;;;;7.54;78.27;101485.06;6208027;23;19912;-77
2022/05/10 01:28:43;;;;;;;;;;;;;;;7.53;78.38;101492.22;6174909;23;19919;-78
2022/05/10 01:31:09;;;;;;;;;;;;;;;7.45;78.87;101489.31;6175434;23;19916;-77
2022/05/10 01:33:36;;;;;;;;;;;;;;;7.48;78.75;101485.56;6177020;23;19916;-78
2022/05/10 01:36:17;;;;;;;;;;;;;;;7.42;78.85;101480.66;6175609;23;20328;-78
2022/05/10 01:38:42;;;;;;;;;;;;;;;7.38;79.19;101482.75;6177786;23;19912;-78
2022/05/10 01:41:19;;;;;;;;;;;;;;;7.48;78.70;101481.03;6203131;23;19951;-78
2022/05/10 01:43:49;;;;;;;;;;;;;;;7.45;78.83;101483.97;6203240;23;20271;-79
2022/05/10 01:46:24;;;;;;;;;;;;;;;7.44;78.54;101482.25;6176062;23;19916;-78
2022/05/10 01:48:52;;;;;;;;;;;;;;;7.42;78.80;101475.31;6150624;22;19972;-79
2022/05/10 01:51:21;;;;;;;;;;;;;;;7.42;78.70;101472.63;6152485;22;19920;-78
2022/05/10 01:53:47;;;;;;;;;;;;;;;7.35;79.22;101481.16;6204064;23;19951;-77
2022/05/10 01:56:17;;;;;;;;;;;;;;;7.46;78.86;101484.81;6174705;23;20359;-78
2022/05/10 01:58:43;;;;;;;;;;;;;;;7.36;79.10;101482.00;6174473;23;19942;-79
2022/05/10 02:01:24;;;;;;;;;;;;;;;7.27;79.64;101472.88;6175375;23;19911;-78
2022/05/10 02:04:09;;;;;;;;;;;;;;;7.36;79.36;101472.16;6151171;23;19921;-78
2022/05/10 02:06:37;;;;;;;;;;;;;;;7.34;78.97;101471.41;6151620;23;20365;-77
2022/05/10 02:09:11;;;;;;;;;;;;;;;7.27;79.16;101472.88;6204103;23;19994;-77
2022/05/10 02:11:53;;;;;;;;;;;;;;;7.25;79.00;101473.97;6176511;23;19912;-78
2022/05/10 02:14:24;;;;;;;;;;;;;;;7.25;78.83;101461.44;6176318;23;19919;-77
2022/05/10 02:16:53;;;;;;;;;;;;;;;7.24;78.75;101459.75;6178095;23;19912;-79
2022/05/10 02:19:24;;;;;;;;;;;;;;;7.33;78.24;101460.84;6203492;23;20005;-76
2022/05/10 02:21:57;;;;;;;;;;;;;;;7.36;77.65;101456.09;6176594;23;19952;-78
2022/05/10 02:24:30;;;;;;;;;;;;;;;7.37;77.45;101457.81;6177081;23;19935;-78
2022/05/10 02:26:56;;;;;;;;;;;;;;;7.42;76.83;101449.41;6152404;23;19912;-78
2022/05/10 02:29:31;;;;;;;;;;;;;;;7.42;76.56;101453.91;6176050;22;20268;-79
2022/05/10 02:35:08;;;;;;;;;;;;;;;7.51;74.91;101459.38;6202996;23;19923;-78
2022/05/10 02:37:33;;;;;;;;;;;;;;;7.42;74.69;101452.06;6206148;23;19912;-78
2022/05/10 02:39:59;;;;;;;;;;;;;;;7.45;74.66;101454.53;6154361;23;19941;-79
2022/05/10 02:42:24;;;;;;;;;;;;;;;7.53;74.40;101461.94;6175921;23;19912;-77
2022/05/10 02:44:54;;;;;;;;;;;;;;;7.43;73.98;101458.31;6203640;23;19916;-78
2022/05/10 02:47:30;;;;;;;;;;;;;;;7.52;73.81;101460.25;6176284;23;20350;-76
2022/05/10 02:49:56;;;;;;;;;;;;;;;7.43;74.44;101459.16;6176725;23;19947;-78
2022/05/10 02:52:21;;;;;;;;;;;;;;;7.34;75.00;101466.06;6178912;23;20332;-78
2022/05/10 02:54:46;;;;;;;;;;;;;;;7.46;74.73;101463.41;6181320;23;20045;-79
2022/05/10 02:57:12;;;;;;;;;;;;;;;7.35;75.37;101459.75;6206389;23;20344;-78
2022/05/10 02:59:38;;;;;;;;;;;;;;;7.41;75.45;101469.13;6202429;23;19915;-79
2022/05/10 03:02:10;;;;;;;;;;;;;;;7.42;75.56;101464.63;6203641;23;19916;-78
2022/05/10 03:04:38;;;;;;;;;;;;;;;7.48;75.40;101469.50;6175720;23;19916;-77
2022/05/10 03:07:04;;;;;;;;;;;;;;;7.55;74.84;101465.34;6175042;23;19955;-77
2022/05/10 03:09:30;;;;;;;;;;;;;;;7.54;74.81;101464.50;6202671;23;19994;-78
2022/05/10 03:11:55;;;;;;;;;;;;;;;7.62;74.01;101466.56;6201507;23;19908;-79
2022/05/10 03:14:20;;;;;;;;;;;;;;;7.66;73.27;101470.72;6175185;23;19920;-78
2022/05/10 03:16:46;;;;;;;;;;;;;;;7.71;72.75;101471.19;6150175;23;20325;-77
2022/05/10 03:19:11;;;;;;;;;;;;;;;7.64;72.77;101472.66;6202184;23;19951;-77
2022/05/10 03:21:38;;;;;;;;;;;;;;;7.63;72.84;101473.63;6150247;23;20403;-78
2022/05/10 03:24:04;;;;;;;;;;;;;;;7.58;73.02;101470.47;6202760;23;19912;-78
2022/05/10 03:26:29;;;;;;;;;;;;;;;7.59;73.00;101473.03;6175796;23;19916;-78
2022/05/10 03:28:55;;;;;;;;;;;;;;;7.65;72.80;101477.03;6148922;23;19916;-76
2022/05/10 03:31:22;;;;;;;;;;;;;;;7.61;72.66;101476.44;6151989;23;19916;-78
2022/05/10 03:34:53;;;;;;;;;;;;;;;7.60;72.02;101479.22;6203466;22;19922;-79
2022/05/10 03:36:33;;;;;;;;;;;;;;;7.71;71.62;101487.25;6202088;23;19943;-78
2022/05/10 03:38:58;;;;;;;;;;;;;;;7.78;71.38;101488.47;6179915;23;19919;-79
2022/05/10 03:41:24;;;;;;;;;;;;;;;7.89;71.35;101492.09;6155186;23;19912;-79
2022/05/10 03:43:50;;;;;;;;;;;;;;;7.90;71.66;101491.97;6175598;23;19912;-79
2022/05/10 03:46:17;;;;;;;;;;;;;;;7.93;71.81;101496.25;6176748;23;19916;-78
2022/05/10 03:48:44;;;;;;;;;;;;;;;8.02;71.66;101499.03;6151799;23;19923;-78
2022/05/10 03:51:10;;;;;;;;;;;;;;;8.06;71.76;101499.63;6176625;22;20332;-78
2022/05/10 03:53:35;;;;;;;;;;;;;;;8.02;72.15;101506.22;6176082;23;19919;-79
2022/05/10 03:56:01;;;;;;;;;;;;;;;7.92;72.92;101510.63;6201751;23;19974;-78
2022/05/10 03:58:27;;;;;;;;;;;;;;;8.04;72.69;101517.66;6200118;23;19916;-78
2022/05/10 04:00:53;;;;;;;;;;;;;;;8.21;71.95;101514.44;6201563;23;19916;-78
2022/05/10 04:03:19;;;;;;;;;;;;;;;8.04;72.02;101512.28;6201368;23;20000;-77
2022/05/10 04:05:45;;;;;;;;;;;;;;;8.15;71.96;101508.75;6201269;23;19923;-79
2022/05/10 04:08:10;;;;;;;;;;;;;;;8.20;71.88;101510.09;6176633;23;19973;-78
2022/05/10 04:10:36;;;;;;;;;;;;;;;8.36;71.39;101508.84;6174816;23;19927;-78
2022/05/10 04:13:01;;;;;;;;;;;;;;;8.41;71.29;101506.66;6168330;23;20049;-78
2022/05/10 04:15:26;;;;;;;;;;;;;;;8.39;71.57;101509.44;6175722;22;19984;-79
2022/05/10 04:17:52;;;;;;;;;;;;;;;8.58;71.00;101507.94;6199865;23;19942;-80
2022/05/10 04:20:19;;;;;;;;;;;;;;;8.66;70.68;101511.69;6150831;23;20372;-80
2022/05/10 04:22:46;;;;;;;;;;;;;;;8.76;70.72;101513.63;6179151;23;19916;-78
2022/05/10 04:25:11;;;;;;;;;;;;;;;8.87;70.29;101513.53;6155809;23;19939;-79
2022/05/10 04:27:37;;;;;;;;;;;;;;;8.79;70.81;101516.03;6174911;23;20366;-82
2022/05/10 04:30:03;;;;;;;;;;;;;;;8.87;70.94;101518.91;6150995;23;19912;-81
2022/05/10 04:32:36;;;;;;;;;;;;;;;9.12;70.32;101527.56;6178674;23;20443;-80
2022/05/10 04:35:02;;;;;;;;;;;;;;;9.65;68.96;101524.78;6175997;23;20285;-81
2022/05/10 04:37:28;;;;;;;;;;;;;;;10.34;66.42;101521.38;6206362;23;19919;-80
2022/05/10 04:42:38;;;;;;;;;;;;;;;11.59;63.90;101526.84;6205880;23;20392;-83
2022/05/10 04:45:06;;;;;;;;;;;;;;;11.98;60.71;101521.31;6181578;23;19948;-82
2022/05/10 04:47:32;;;;;;;;;;;;;;;12.45;59.82;101527.47;6209178;23;19912;-83
2022/05/10 04:49:57;;;;;;;;;;;;;;;12.88;57.43;101523.16;6156003;23;19934;-83
2022/05/10 04:52:22;;;;;;;;;;;;;;;13.11;57.10;101517.28;6204778;23;19970;-84
2022/05/10 04:54:48;;;;;;;;;;;;;;;13.41;55.74;101515.16;6180989;23;19940;-84
2022/05/10 04:57:13;;;;;;;;;;;;;;;13.56;55.35;101515.44;6179691;23;19936;-88
2022/05/10 04:59:38;;;;;;;;;;;;;;;13.70;54.90;101515.66;6180767;23;20003;-83
2022/05/10 05:02:04;;;;;;;;;;;;;;;13.81;54.48;101513.69;6207585;23;20316;-85
2022/05/10 05:04:29;;;;;;;;;;;;;;;13.94;53.67;101508.69;6180434;23;19908;-83
2022/05/10 05:06:55;;;;;;;;;;;;;;;14.33;53.52;101510.88;6180747;23;19951;-83
2022/05/10 05:09:22;;;;;;;;;;;;;;;14.43;53.11;101514.25;6181278;23;19912;-81
2022/05/10 05:11:47;;;;;;;;;;;;;;;14.59;52.50;101518.91;6156418;23;20007;-84
2022/05/10 05:14:13;;;;;;;;;;;;;;;14.74;51.74;101522.63;6182056;23;19951;-83
2022/05/10 05:16:38;;;;;;;;;;;;;;;14.81;51.10;101511.97;6182399;23;19916;-83
2022/05/10 05:19:05;;;;;;;;;;;;;;;15.16;50.13;101520.78;6157813;22;19916;-83
2022/05/10 05:21:32;;;;;;;;;;;;;;;15.07;50.24;101527.22;6182433;23;19912;-83
2022/05/10 05:23:57;;;;;;;;;;;;;;;15.05;50.20;101524.66;6157133;23;19923;-81
2022/05/10 05:26:25;;;;;;;;;;;;;;;15.30;50.32;101528.22;6155715;22;19916;-84
2022/05/10 05:28:51;;;;;;;;;;;;;;;15.74;49.85;101538.69;6182570;23;20020;-87
2022/05/10 05:31:17;;;;;;;;;;;;;;;15.99;48.88;101534.03;6184218;23;19916;-85
2022/05/10 05:33:43;;;;;;;;;;;;;;;16.39;47.49;101536.75;6184561;22;19912;-86
2022/05/10 05:36:09;;;;;;;;;;;;;;;16.83;46.29;101531.56;6182209;23;19935;-85
2022/05/10 05:38:35;;;;;;;;;;;;;;;17.14;45.62;101522.50;6185094;23;19912;-84
2022/05/10 05:41:01;;;;;;;;;;;;;;;17.58;44.68;101523.59;6154280;23;19927;-83
2022/05/10 05:43:27;;;;;;;;;;;;;;;17.80;43.41;101530.84;6207031;23;19919;-81
2022/05/10 05:45:53;;;;;;;;;;;;;;;17.87;43.46;101537.25;6156359;23;19916;-87
2022/05/10 05:48:18;;;;;;;;;;;;;;;17.88;43.28;101535.34;6165967;22;19925;-84
2022/05/10 05:50:43;;;;;;;;;;;;;;;18.08;42.73;101535.63;6170611;23;19923;-82
2022/05/10 05:53:09;;;;;;;;;;;;;;;18.38;42.17;101532.84;6222186;23;19923;-82
2022/05/10 05:55:34;;;;;;;;;;;;;;;18.48;40.92;101533.41;6158884;22;20273;-85
2022/05/10 05:58:00;;;;;;;;;;;;;;;18.90;40.46;101523.63;6207454;23;19916;-86
2022/05/10 06:00:26;;;;;;;;;;;;;;;19.20;39.72;101524.31;6204643;23;19916;-84
2022/05/10 06:02:52;;;;;;;;;;;;;;;19.54;38.57;101531.69;6206301;22;19912;-81
2022/05/10 06:05:18;;;;;;;;;;;;;;;19.46;38.40;101531.84;6206115;23;19969;-82
2022/05/10 06:07:47;;;;;;;;;;;;;;;19.32;37.61;101530.91;6181903;23;19976;-84
2022/05/10 06:10:15;;;;;;;;;;;;;;;19.50;38.17;101535.88;6183406;23;20198;-84
2022/05/10 06:12:41;;;;;;;;;;;;;;;19.69;37.33;101538.94;6156296;23;19927;-83
2022/05/10 06:15:10;;;;;;;;;;;;;;;19.94;36.62;101536.56;6182038;23;19916;-81
2022/05/10 06:17:40;;;;;;;;;;;;;;;20.25;35.90;101536.09;6184967;23;19970;-83
2022/05/10 06:20:07;;;;;;;;;;;;;;;20.55;34.47;101533.03;6209505;23;19912;-83
2022/05/10 06:22:32;;;;;;;;;;;;;;;20.75;32.91;101533.16;6182975;23;19943;-83
2022/05/10 06:24:59;;;;;;;;;;;;;;;20.90;31.34;101538.41;6210020;23;19935;-84
2022/05/10 06:27:25;;;;;;;;;;;;;;;21.13;32.31;101538.03;6208905;23;20248;-84
2022/05/10 06:29:51;;;;;;;;;;;;;;;20.67;32.77;101536.88;6158052;23;19946;-84
2022/05/10 06:32:22;;;;;;;;;;;;;;;20.93;30.74;101535.25;6183904;22;20015;-83
2022/05/10 06:34:49;;;;;;;;;;;;;;;21.10;31.52;101542.03;6208919;23;19962;-84
2022/05/10 06:38:16;;;;;;;;;;;;;;;20.84;31.59;101543.66;6183393;23;20382;-84
2022/05/10 06:40:24;;;;;;;;;;;;;;;21.19;30.66;101535.28;6187410;22;19912;-84
2022/05/10 06:42:49;;;;;;;;;;;;;;;21.02;30.62;101542.19;6209065;23;20369;-84
2022/05/10 06:45:18;;;;;;;;;;;;;;;20.45;32.02;101538.91;6183219;23;20296;-84
2022/05/10 06:47:46;;;;;;;;;;;;;;;20.84;31.50;101540.94;6181511;23;19912;-83
2022/05/10 06:50:13;;;;;;;;;;;;;;;20.97;31.56;101539.25;6210136;22;19927;-84
2022/05/10 06:52:44;;;;;;;;;;;;;;;20.79;31.62;101529.78;6183679;23;19916;-84
2022/05/10 06:55:10;;;;;;;;;;;;;;;20.93;31.28;101535.25;6184413;23;20333;-83
2022/05/10 06:57:37;;;;;;;;;;;;;;;20.82;31.69;101534.84;6157673;22;19915;-84
2022/05/10 07:00:09;;;;;;;;;;;;;;;21.41;31.38;101527.72;6186717;22;19912;-84
2022/05/10 07:02:36;;;;;;;;;;;;;;;21.27;32.02;101537.81;6184833;22;20304;-84
2022/05/10 07:05:02;;;;;;;;;;;;;;;21.07;32.24;101547.88;6183184;23;19947;-84
2022/05/10 07:07:30;;;;;;;;;;;;;;;20.92;32.46;101548.09;6210638;23;19912;-84
2022/05/10 07:09:56;;;;;;;;;;;;;;;21.08;31.64;101538.66;6184214;23;20234;-84
2022/05/10 07:12:21;;;;;;;;;;;;;;;21.04;32.09;101538.22;6182387;23;19943;-83
2022/05/10 07:14:51;;;;;;;;;;;;;;;21.09;30.84;101540.31;6153262;23;20130;-85
2022/05/10 07:17:19;;;;;;;;;;;;;;;21.55;28.92;101538.66;6178993;22;20003;-84
2022/05/10 07:19:47;;;;;;;;;;;;;;;20.98;30.05;101551.91;6219505;23;20025;-94
2022/05/10 07:22:13;;;;;;;;;;;;;;;21.03;30.48;101546.63;6214901;22;19969;-90
2022/05/10 07:24:49;;;;;;;;;;;;;;;20.91;29.11;101548.28;6188995;22;19916;-86
2022/05/10 07:27:16;;;;;;;;;;;;;;;20.53;29.84;101551.53;6187193;23;19919;-84
2022/05/10 07:29:43;;;;;;;;;;;;;;;20.77;30.96;101545.53;6193927;22;19915;-85
2022/05/10 07:32:14;;;;;;;;;;;;;;;20.90;31.43;101554.81;6212223;23;19943;-84
2022/05/10 07:34:40;;;;;;;;;;;;;;;21.22;30.30;101545.81;6186314;23;19916;-85
2022/05/10 07:37:07;;;;;;;;;;;;;;;21.84;29.00;101542.81;6188466;23;19912;-83
2022/05/10 07:39:40;;;;;;;;;;;;;;;21.93;28.31;101547.84;6189763;23;19912;-86
2022/05/10 07:42:05;;;;;;;;;;;;;;;22.10;28.47;101550.97;6214909;23;19916;-86
2022/05/10 07:44:33;;;;;;;;;;;;;;;21.67;29.08;101551.47;6189088;23;19995;-84
2022/05/10 07:47:04;;;;;;;;;;;;;;;21.29;29.67;101556.75;6214696;23;19920;-86
2022/05/10 07:49:33;;;;;;;;;;;;;;;21.52;30.30;101552.75;6166531;22;19923;-86
2022/05/10 07:52:00;;;;;;;;;;;;;;;21.34;30.59;101548.75;6184658;23;20281;-85
2022/05/10 07:54:26;;;;;;;;;;;;;;;21.84;30.68;101553.75;6183613;23;19958;-84
2022/05/10 07:56:52;;;;;;;;;;;;;;;21.82;30.29;101559.47;6163731;22;19919;-86
2022/05/10 07:59:18;;;;;;;;;;;;;;;21.90;29.25;101561.13;6182895;23;19922;-82
2022/05/10 08:01:43;;;;;;;;;;;;;;;22.29;28.95;101556.63;6182596;23;19982;-81
2022/05/10 08:04:10;;;;;;;;;;;;;;;22.86;27.87;101559.47;6183053;23;19916;-85
2022/05/10 08:06:40;;;;;;;;;;;;;;;22.77;27.58;101556.16;6217434;22;19962;-84
2022/05/10 08:09:05;;;;;;;;;;;;;;;22.44;27.72;101554.44;6186107;23;19916;-86
2022/05/10 08:11:30;;;;;;;;;;;;;;;22.45;28.88;101558.00;6207512;23;19962;-80
2022/05/10 08:13:56;;;;;;;;;;;;;;;22.29;29.52;101564.84;6203339;23;19978;-80
2022/05/10 08:16:21;;;;;;;;;;;;;;;22.50;29.62;101548.09;6179583;22;19987;-78
2022/05/10 08:18:48;;;;;;;;;;;;;;;22.80;28.20;101555.69;6156115;23;19912;-80
2022/05/10 08:21:14;;;;;;;;;;;;;;;23.31;28.88;101556.63;6177632;23;19934;-80
2022/05/10 08:23:39;;;;;;;;;;;;;;;24.09;28.00;101545.13;6206665;23;20259;-80
2022/05/10 08:26:04;;;;;;;;;;;;;;;24.12;27.68;101547.41;6179829;23;20256;-79
2022/05/10 08:28:30;;;;;;;;;;;;;;;24.58;26.29;101551.50;6178960;23;20312;-78
2022/05/10 08:30:55;;;;;;;;;;;;;;;24.70;27.65;101556.19;6152314;23;19913;-81
2022/05/10 08:33:23;;;;;;;;;;;;;;;23.76;28.60;101546.34;6177960;23;20264;-78
2022/05/10 08:35:48;;;;;;;;;;;;;;;24.21;27.52;101553.44;6203811;23;19920;-78
2022/05/10 08:38:14;;;;;;;;;;;;;;;24.52;27.06;101557.09;6176892;23;19923;-81
2022/05/10 08:40:41;;;;;;;;;;;;;;;24.54;26.57;101552.19;6180398;23;19916;-81
2022/05/10 08:43:07;;;;;;;;;;;;;;;24.41;28.17;101550.41;6180304;23;20220;-79
2022/05/10 08:45:33;;;;;;;;;;;;;;;24.62;25.18;101544.44;6180188;23;19912;-80
2022/05/10 08:48:00;;;;;;;;;;;;;;;24.86;27.56;101544.53;6182156;23;19912;-80
2022/05/10 08:50:25;;;;;;;;;;;;;;;24.73;27.08;101544.75;6208169;23;20359;-82
2022/05/10 08:52:51;;;;;;;;;;;;;;;25.58;24.83;101546.34;6180903;23;19912;-80
2022/05/10 08:55:21;;;;;;;;;;;;;;;26.10;23.72;101538.16;6181824;23;19912;-80
2022/05/10 08:58:01;;;;;;;;;;;;;;;26.00;23.88;101538.78;6181761;23;19916;-80
2022/05/10 09:00:28;;;;;;;;;;;;;;;25.61;23.40;101543.09;6182121;23;19995;-80
2022/05/10 09:02:55;;;;;;;;;;;;;;;27.38;22.36;101543.31;6180941;23;19908;-81
2022/05/10 09:05:33;;;;;;;;;;;;;;;28.00;21.53;101545.06;6207120;23;19916;-80
2022/05/10 09:08:01;;;;;;;;;;;;;;;27.08;22.34;101544.44;6155430;23;20332;-81
2022/05/10 09:10:32;;;;;;;;;;;;;;;27.57;21.91;101549.41;6207034;23;19939;-79
2022/05/10 09:12:59;;;;;;;;;;;;;;;26.60;23.39;101537.53;6207448;22;19919;-81
2022/05/10 09:15:28;;;;;;;;;;;;;;;27.30;21.96;101549.25;6179261;23;19916;-82
2022/05/10 09:17:56;;;;;;;;;;;;;;;27.87;20.93;101540.75;6152789;23;20329;-81
2022/05/10 09:20:22;;;;;;;;;;;;;;;27.56;21.65;101545.81;6151762;23;19912;-79
2022/05/10 09:22:57;;;;;;;;;;;;;;;27.33;21.28;101544.06;6178097;23;20367;-79
2022/05/10 09:25:32;;;;;;;;;;;;;;;27.65;19.47;101542.59;6178969;23;19917;-80
2022/05/10 09:28:03;;;;;;;;;;;;;;;27.99;19.03;101535.94;6177246;23;20338;-80
2022/05/10 09:30:30;;;;;;;;;;;;;;;27.47;19.06;101543.75;6151892;23;19920;-81
2022/05/10 09:35:59;;;;;;;;;;;;;;;27.82;19.17;101543.44;6177891;23;19999;-80
2022/05/10 09:38:26;;;;;;;;;;;;;;;27.66;19.64;101549.81;6151540;23;19920;-81
2022/05/10 09:40:52;;;;;;;;;;;;;;;27.86;19.21;101541.88;6151685;23;19987;-79
2022/05/10 09:43:32;;;;;;;;;;;;;;;27.65;19.09;101545.38;6177534;23;19952;-80
2022/05/10 09:46:15;;;;;;;;;;;;;;;26.89;20.09;101545.78;6177797;23;19912;-81
2022/05/10 09:48:42;;;;;;;;;;;;;;;26.94;19.37;101537.59;6151903;23;19913;-79
2022/05/10 09:51:26;;;;;;;;;;;;;;;27.71;17.94;101538.84;6150982;23;19946;-81
2022/05/10 09:53:52;;;;;;;;;;;;;;;27.47;18.75;101549.25;6177582;23;19969;-80
2022/05/10 09:56:40;;;;;;;;;;;;;;;27.70;19.56;101537.19;6156004;22;19940;-81
2022/05/10 09:59:12;;;;;;;;;;;;;;;27.30;20.02;101538.22;6168183;23;19934;-81
2022/05/10 10:01:43;;;;;;;;;;;;;;;27.20;19.94;101540.81;6185979;22;19944;-84
2022/05/10 10:04:11;;;;;;;;;;;;;;;28.55;19.20;101537.75;6151113;23;20241;-82
2022/05/10 10:06:38;;;;;;;;;;;;;;;27.93;19.64;101527.84;6151433;23;19944;-82
2022/05/10 10:09:04;;;;;;;;;;;;;;;29.49;17.96;101538.31;6177953;22;19912;-82
2022/05/10 10:11:33;;;;;;;;;;;;;;;28.21;17.68;101537.88;6177456;22;19912;-81
2022/05/10 10:13:58;;;;;;;;;;;;;;;27.78;18.77;101526.50;6156717;22;19994;-80
2022/05/10 10:16:25;;;;;;;;;;;;;;;27.88;18.59;101536.06;6177389;23;20337;-82
2022/05/10 10:18:52;;;;;;;;;;;;;;;28.58;18.75;101537.22;6177504;23;19912;-82
2022/05/10 10:21:20;;;;;;;;;;;;;;;27.60;17.93;101529.56;6280549;22;19922;-83
2022/05/10 10:23:50;;;;;;;;;;;;;;;27.25;19.17;101529.84;6281609;22;19935;-81
2022/05/10 10:26:21;;;;;;;;;;;;;;;27.01;19.58;101529.16;6282955;22;20019;-82
2022/05/10 10:29:17;;;;;;;;;;;;;;;27.48;19.76;101515.84;6282700;22;20015;-82
2022/05/10 10:32:01;;;;;;;;;;;;;;;29.25;18.37;101519.31;6207186;22;20367;-83
2022/05/10 10:34:37;;;;;;;;;;;;;;;28.82;19.02;101513.69;6282833;22;19931;-81
2022/05/10 10:37:08;;;;;;;;;;;;;;;27.61;19.63;101519.38;6283002;22;20253;-81
2022/05/10 10:39:46;;;;;;;;;;;;;;;28.15;19.02;101514.88;6180392;23;19912;-83
2022/05/10 10:42:13;;;;;;;;;;;;;;;28.81;18.51;101523.06;6178936;23;20666;-82
2022/05/10 10:44:40;;;;;;;;;;;;;;;28.14;20.06;101517.88;6178614;23;19943;-82
2022/05/10 10:47:11;;;;;;;;;;;;;;;28.47;19.15;101516.06;6178609;23;19920;-81
2022/05/10 10:49:57;;;;;;;;;;;;;;;29.20;17.82;101513.75;6281607;22;19971;-84
2022/05/10 10:52:24;;;;;;;;;;;;;;;28.88;17.44;101511.78;6193634;22;19978;-79
2022/05/10 10:54:49;;;;;;;;;;;;;;;29.33;17.47;101506.91;6281808;22;19912;-82
2022/05/10 10:57:17;;;;;;;;;;;;;;;28.47;17.64;101505.88;6255503;22;19973;-83
2022/05/10 10:59:48;;;;;;;;;;;;;;;28.88;16.44;101500.72;6280845;22;19920;-82
2022/05/10 11:02:13;;;;;;;;;;;;;;;28.58;16.15;101495.72;6282595;22;20004;-84
2022/05/10 11:04:45;;;;;;;;;;;;;;;28.42;16.70;101501.09;6281800;22;19935;-82
2022/05/10 11:07:19;;;;;;;;;;;;;;;28.87;16.57;101492.66;6177201;22;19922;-81
2022/05/10 11:09:47;;;;;;;;;;;;;;;28.89;17.66;101496.00;6277417;22;19930;-87
2022/05/10 11:12:15;;;;;;;;;;;;;;;29.28;18.06;101491.09;6277054;22;19912;-83
2022/05/10 11:14:56;;;;;;;;;;;;;;;28.27;18.66;101484.31;6191688;23;19977;-78
2022/05/10 11:17:24;;;;;;;;;;;;;;;28.14;18.06;101473.66;6202244;23;19916;-79
2022/05/10 11:19:53;;;;;;;;;;;;;;;26.95;19.19;101478.56;6202369;22;19920;-77
2022/05/10 11:22:37;;;;;;;;;;;;;;;27.79;18.51;101477.59;6174923;23;19969;-81
2022/05/10 11:25:21;;;;;;;;;;;;;;;24.55;21.85;101472.22;6178705;22;19957;-79
2022/05/10 11:28:05;;;;;;;;;;;;;;;24.83;22.73;101473.50;6179512;22;19916;-79
2022/05/10 11:30:33;;;;;;;;;;;;;;;25.24;22.55;101463.53;6206916;23;19994;-78
2022/05/10 11:33:08;;;;;;;;;;;;;;;24.44;21.97;101467.50;6176506;23;19927;-78
2022/05/10 11:35:44;;;;;;;;;;;;;;;23.30;22.08;101468.00;6206440;23;19916;-79
2022/05/10 11:38:28;;;;;;;;;;;;;;;23.33;21.65;101470.28;6202421;22;19916;-80
2022/05/10 11:41:00;;;;;;;;;;;;;;;23.04;24.32;101468.25;6176786;23;20415;-81
2022/05/10 11:43:47;;;;;;;;;;;;;;;23.41;24.20;101449.94;6205277;23;19962;-82
2022/05/10 11:46:48;;;;;;;;;;;;;;;22.62;23.18;101465.19;6175825;23;20011;-81
2022/05/10 11:49:14;;;;;;;;;;;;;;;22.56;23.61;101453.19;6110020;23;19917;-84
2022/05/10 11:52:00;;;;;;;;;;;;;;;22.20;26.04;101456.56;6158679;23;19913;-85
2022/05/10 11:54:29;;;;;;;;;;;;;;;21.80;25.80;101460.31;6202571;23;20359;-85
2022/05/10 11:56:58;;;;;;;;;;;;;;;21.60;27.13;101457.63;6178059;22;19916;-83
2022/05/10 11:59:28;;;;;;;;;;;;;;;20.86;26.77;101448.66;6181418;23;19981;-82
2022/05/10 12:01:56;;;;;;;;;;;;;;;20.72;27.77;101452.44;6180978;23;19912;-86
2022/05/10 12:04:57;;;;;;;;;;;;;;;20.21;30.75;101450.19;6214102;23;19935;-90
2022/05/10 12:07:23;;;;;;;;;;;;;;;20.14;31.99;101443.88;6212851;22;19912;-88
2022/05/10 12:09:52;;;;;;;;;;;;;;;19.99;32.08;101444.88;6204968;23;19946;-84
2022/05/10 12:12:36;;;;;;;;;;;;;;;20.33;30.33;101443.09;6202384;23;19947;-84
2022/05/10 12:23:52;;;;;;;;;;;;;;;19.79;31.33;101441.22;6183952;23;20058;-84
2022/05/10 12:26:37;;;;;;;;;;;;;;;19.71;32.48;101433.19;6207599;23;19983;-82
2022/05/10 12:29:04;;;;;;;;;;;;;;;19.49;33.50;101429.69;6180992;23;19912;-82
2022/05/10 12:31:32;;;;;;;;;;;;;;;19.72;33.28;101423.97;6181159;23;19918;-82
2022/05/10 12:34:07;;;;;;;;;;;;;;;19.33;34.66;101414.50;6207943;23;19934;-85
2022/05/10 12:36:33;;;;;;;;;;;;;;;19.53;34.91;101420.91;6208199;23;19991;-82
2022/05/10 12:39:19;;;;;;;;;;;;;;;19.57;33.18;101422.22;6183524;23;19916;-82
2022/05/10 12:41:44;;;;;;;;;;;;;;;18.71;34.15;101414.25;6190497;23;19942;-81
2022/05/10 12:44:13;;;;;;;;;;;;;;;18.64;34.90;101410.63;6206014;23;19916;-81
2022/05/10 12:46:52;;;;;;;;;;;;;;;18.89;35.49;101412.94;6208764;23;20361;-81
2022/05/10 12:49:18;;;;;;;;;;;;;;;18.99;35.94;101410.72;6182409;23;20351;-81
2022/05/10 12:51:45;;;;;;;;;;;;;;;18.67;36.31;101407.50;6177550;22;19916;-80
2022/05/10 12:54:11;;;;;;;;;;;;;;;18.38;37.29;101404.91;6204758;23;19920;-80
2022/05/10 12:56:42;;;;;;;;;;;;;;;18.53;37.69;101402.97;6200737;23;19943;-83
2022/05/10 12:59:28;;;;;;;;;;;;;;;18.07;37.62;101395.16;6204823;23;20156;-81
2022/05/10 13:01:55;;;;;;;;;;;;;;;17.72;39.00;101392.22;6180162;22;20329;-82
2022/05/10 13:04:22;;;;;;;;;;;;;;;17.94;39.27;101401.31;6182195;23;19920;-80
2022/05/10 13:07:00;;;;;;;;;;;;;;;17.95;39.21;101388.56;6178740;23;19912;-80
2022/05/10 13:09:49;;;;;;;;;;;;;;;17.85;39.28;101389.69;6180113;23;19912;-81